sensor_id;sensor_type;location;lat;lon;timestamp;P1;durP1;ratioP1;P2;durP2;ratioP2
9324;SDS011;4701;51.566;6.776;2023-07-20T00:01:39;6.77;;;3.93;;
9324;SDS011;4701;51.566;6.776;2023-07-20T00:04:44;5.00;;;4.17;;
9324;SDS011;4701;51.566;6.776;2023-07-20T00:07:46;5.40;;;4.20;;
9324;SDS011;4701;51.566;6.776;2023-07-20T00:10:52;4.27;;;3.87;;
9324;SDS011;4701;51.566;6.776;2023-07-20T00:13:55;5.93;;;4.60;;
9324;SDS011;4701;51.566;6.776;2023-07-20T00:16:56;7.73;;;4.43;;
9324;SDS011;4701;51.566;6.776;2023-07-20T00:19:58;5.33;;;4.33;;
9324;SDS011;4701;51.566;6.776;2023-07-20T00:23:00;5.47;;;4.23;;
9324;SDS011;4701;51.566;6.776;2023-07-20T00:26:01;6.50;;;4.50;;
9324;SDS011;4701;51.566;6.776;2023-07-20T00:29:04;5.70;;;5.10;;
9324;SDS011;4701;51.566;6.776;2023-07-20T00:32:06;5.47;;;4.93;;
9324;SDS011;4701;51.566;6.776;2023-07-20T00:35:08;10.23;;;5.90;;
9324;SDS011;4701;51.566;6.776;2023-07-20T00:38:11;7.63;;;5.37;;
9324;SDS011;4701;51.566;6.776;2023-07-20T00:41:12;7.03;;;5.23;;
9324;SDS011;4701;51.566;6.776;2023-07-20T00:44:16;7.23;;;5.23;;
9324;SDS011;4701;51.566;6.776;2023-07-20T00:47:17;7.50;;;5.17;;
9324;SDS011;4701;51.566;6.776;2023-07-20T00:50:19;8.60;;;4.73;;
9324;SDS011;4701;51.566;6.776;2023-07-20T00:53:21;5.60;;;4.40;;
9324;SDS011;4701;51.566;6.776;2023-07-20T00:56:23;5.53;;;4.73;;
9324;SDS011;4701;51.566;6.776;2023-07-20T00:59:26;4.83;;;4.43;;
9324;SDS011;4701;51.566;6.776;2023-07-20T01:02:28;5.43;;;4.37;;
9324;SDS011;4701;51.566;6.776;2023-07-20T01:05:33;5.10;;;4.33;;
9324;SDS011;4701;51.566;6.776;2023-07-20T01:08:40;7.17;;;4.50;;
9324;SDS011;4701;51.566;6.776;2023-07-20T01:11:49;5.23;;;3.33;;
9324;SDS011;4701;51.566;6.776;2023-07-20T01:15:00;5.23;;;3.60;;
9324;SDS011;4701;51.566;6.776;2023-07-20T01:18:02;6.67;;;4.63;;
9324;SDS011;4701;51.566;6.776;2023-07-20T01:21:06;4.67;;;4.20;;
9324;SDS011;4701;51.566;6.776;2023-07-20T01:27:57;6.60;;;4.70;;
9324;SDS011;4701;51.566;6.776;2023-07-20T01:31:17;6.23;;;5.17;;
9324;SDS011;4701;51.566;6.776;2023-07-20T01:34:22;5.90;;;4.93;;
9324;SDS011;4701;51.566;6.776;2023-07-20T01:37:25;6.90;;;5.43;;
9324;SDS011;4701;51.566;6.776;2023-07-20T01:40:29;6.10;;;4.70;;
9324;SDS011;4701;51.566;6.776;2023-07-20T01:43:32;5.80;;;5.10;;
9324;SDS011;4701;51.566;6.776;2023-07-20T01:46:35;6.47;;;5.00;;
9324;SDS011;4701;51.566;6.776;2023-07-20T01:49:37;8.57;;;5.90;;
9324;SDS011;4701;51.566;6.776;2023-07-20T01:52:38;5.90;;;4.80;;
9324;SDS011;4701;51.566;6.776;2023-07-20T01:55:40;7.10;;;5.50;;
9324;SDS011;4701;51.566;6.776;2023-07-20T01:58:42;7.47;;;5.47;;
9324;SDS011;4701;51.566;6.776;2023-07-20T02:01:45;7.43;;;5.77;;
9324;SDS011;4701;51.566;6.776;2023-07-20T02:04:47;7.50;;;5.93;;
9324;SDS011;4701;51.566;6.776;2023-07-20T02:07:48;6.50;;;5.83;;
9324;SDS011;4701;51.566;6.776;2023-07-20T02:10:50;8.50;;;6.23;;
9324;SDS011;4701;51.566;6.776;2023-07-20T02:13:52;8.50;;;6.57;;
9324;SDS011;4701;51.566;6.776;2023-07-20T02:16:55;7.90;;;6.43;;
9324;SDS011;4701;51.566;6.776;2023-07-20T02:19:57;8.77;;;6.30;;
9324;SDS011;4701;51.566;6.776;2023-07-20T02:22:59;9.77;;;6.80;;
9324;SDS011;4701;51.566;6.776;2023-07-20T02:26:01;8.93;;;6.90;;
9324;SDS011;4701;51.566;6.776;2023-07-20T02:29:02;9.73;;;7.30;;
9324;SDS011;4701;51.566;6.776;2023-07-20T02:32:07;7.90;;;6.87;;
9324;SDS011;4701;51.566;6.776;2023-07-20T02:35:09;10.17;;;7.47;;
9324;SDS011;4701;51.566;6.776;2023-07-20T02:38:11;8.87;;;8.00;;
9324;SDS011;4701;51.566;6.776;2023-07-20T02:41:13;10.70;;;9.60;;
9324;SDS011;4701;51.566;6.776;2023-07-20T02:44:14;11.17;;;9.97;;
9324;SDS011;4701;51.566;6.776;2023-07-20T02:47:17;10.77;;;9.67;;
9324;SDS011;4701;51.566;6.776;2023-07-20T02:50:19;9.80;;;8.80;;
9324;SDS011;4701;51.566;6.776;2023-07-20T02:53:21;10.40;;;8.63;;
9324;SDS011;4701;51.566;6.776;2023-07-20T02:56:23;10.87;;;9.40;;
9324;SDS011;4701;51.566;6.776;2023-07-20T02:59:24;9.80;;;8.60;;
9324;SDS011;4701;51.566;6.776;2023-07-20T03:02:27;10.73;;;9.10;;
9324;SDS011;4701;51.566;6.776;2023-07-20T03:05:31;11.23;;;9.13;;
9324;SDS011;4701;51.566;6.776;2023-07-20T03:08:32;14.57;;;9.60;;
9324;SDS011;4701;51.566;6.776;2023-07-20T03:11:35;11.70;;;10.07;;
9324;SDS011;4701;51.566;6.776;2023-07-20T03:14:37;11.97;;;10.27;;
9324;SDS011;4701;51.566;6.776;2023-07-20T03:17:40;11.10;;;9.90;;
9324;SDS011;4701;51.566;6.776;2023-07-20T03:20:42;14.07;;;11.40;;
9324;SDS011;4701;51.566;6.776;2023-07-20T03:23:43;12.30;;;11.00;;
9324;SDS011;4701;51.566;6.776;2023-07-20T03:26:46;12.00;;;10.83;;
9324;SDS011;4701;51.566;6.776;2023-07-20T03:29:47;13.90;;;10.93;;
9324;SDS011;4701;51.566;6.776;2023-07-20T03:32:50;12.90;;;10.53;;
9324;SDS011;4701;51.566;6.776;2023-07-20T03:35:55;12.13;;;10.83;;
9324;SDS011;4701;51.566;6.776;2023-07-20T03:38:58;11.83;;;10.63;;
9324;SDS011;4701;51.566;6.776;2023-07-20T03:41:59;11.67;;;10.57;;
9324;SDS011;4701;51.566;6.776;2023-07-20T03:45:01;10.90;;;9.60;;
9324;SDS011;4701;51.566;6.776;2023-07-20T03:48:06;12.23;;;11.13;;
9324;SDS011;4701;51.566;6.776;2023-07-20T03:51:07;10.73;;;9.73;;
9324;SDS011;4701;51.566;6.776;2023-07-20T03:54:09;13.67;;;10.53;;
9324;SDS011;4701;51.566;6.776;2023-07-20T03:57:11;11.83;;;10.60;;
9324;SDS011;4701;51.566;6.776;2023-07-20T04:00:13;12.10;;;10.90;;
9324;SDS011;4701;51.566;6.776;2023-07-20T04:03:17;11.37;;;10.20;;
9324;SDS011;4701;51.566;6.776;2023-07-20T04:06:20;10.63;;;9.47;;
9324;SDS011;4701;51.566;6.776;2023-07-20T04:09:22;10.83;;;9.73;;
9324;SDS011;4701;51.566;6.776;2023-07-20T04:12:24;10.03;;;9.03;;
9324;SDS011;4701;51.566;6.776;2023-07-20T04:15:25;9.50;;;8.60;;
9324;SDS011;4701;51.566;6.776;2023-07-20T04:18:28;9.70;;;8.80;;
9324;SDS011;4701;51.566;6.776;2023-07-20T04:21:30;9.20;;;8.30;;
9324;SDS011;4701;51.566;6.776;2023-07-20T04:24:32;8.70;;;8.00;;
9324;SDS011;4701;51.566;6.776;2023-07-20T04:27:34;8.20;;;7.40;;
9324;SDS011;4701;51.566;6.776;2023-07-20T04:30:36;8.47;;;7.50;;
9324;SDS011;4701;51.566;6.776;2023-07-20T04:33:39;9.20;;;8.10;;
9324;SDS011;4701;51.566;6.776;2023-07-20T04:36:41;7.37;;;6.67;;
9324;SDS011;4701;51.566;6.776;2023-07-20T04:39:43;6.97;;;6.30;;
9324;SDS011;4701;51.566;6.776;2023-07-20T04:42:44;6.97;;;6.30;;
9324;SDS011;4701;51.566;6.776;2023-07-20T04:45:46;6.80;;;6.10;;
9324;SDS011;4701;51.566;6.776;2023-07-20T04:48:49;7.23;;;6.63;;
9324;SDS011;4701;51.566;6.776;2023-07-20T04:51:51;8.00;;;6.20;;
9324;SDS011;4701;51.566;6.776;2023-07-20T04:54:53;7.20;;;5.73;;
9324;SDS011;4701;51.566;6.776;2023-07-20T04:57:55;6.90;;;6.20;;
9324;SDS011;4701;51.566;6.776;2023-07-20T05:00:56;6.77;;;6.13;;
9324;SDS011;4701;51.566;6.776;2023-07-20T05:03:59;6.90;;;6.30;;
9324;SDS011;4701;51.566;6.776;2023-07-20T05:07:01;5.90;;;5.40;;
9324;SDS011;4701;51.566;6.776;2023-07-20T05:10:03;6.47;;;5.57;;
9324;SDS011;4701;51.566;6.776;2023-07-20T05:13:09;6.20;;;5.40;;
9324;SDS011;4701;51.566;6.776;2023-07-20T05:16:14;5.13;;;4.63;;
9324;SDS011;4701;51.566;6.776;2023-07-20T05:19:17;5.17;;;4.63;;
9324;SDS011;4701;51.566;6.776;2023-07-20T05:22:21;6.80;;;5.23;;
9324;SDS011;4701;51.566;6.776;2023-07-20T05:25:23;5.67;;;5.17;;
9324;SDS011;4701;51.566;6.776;2023-07-20T05:28:33;5.73;;;5.23;;
9324;SDS011;4701;51.566;6.776;2023-07-20T05:31:36;5.07;;;4.50;;
9324;SDS011;4701;51.566;6.776;2023-07-20T05:34:41;5.23;;;4.73;;
9324;SDS011;4701;51.566;6.776;2023-07-20T05:37:43;4.63;;;4.23;;
9324;SDS011;4701;51.566;6.776;2023-07-20T05:40:47;4.73;;;4.33;;
9324;SDS011;4701;51.566;6.776;2023-07-20T05:44:01;4.53;;;4.13;;
9324;SDS011;4701;51.566;6.776;2023-07-20T05:47:15;4.20;;;3.90;;
9324;SDS011;4701;51.566;6.776;2023-07-20T05:50:32;4.50;;;3.93;;
9324;SDS011;4701;51.566;6.776;2023-07-20T05:53:44;4.37;;;3.97;;
9324;SDS011;4701;51.566;6.776;2023-07-20T05:56:46;4.03;;;3.73;;
9324;SDS011;4701;51.566;6.776;2023-07-20T05:59:47;3.90;;;3.60;;
9324;SDS011;4701;51.566;6.776;2023-07-20T06:02:49;3.60;;;3.30;;
9324;SDS011;4701;51.566;6.776;2023-07-20T06:05:57;3.60;;;3.30;;
9324;SDS011;4701;51.566;6.776;2023-07-20T06:09:00;3.67;;;3.37;;
9324;SDS011;4701;51.566;6.776;2023-07-20T06:12:04;4.20;;;3.90;;
9324;SDS011;4701;51.566;6.776;2023-07-20T06:15:16;3.80;;;3.50;;
9324;SDS011;4701;51.566;6.776;2023-07-20T06:18:25;4.03;;;3.70;;
9324;SDS011;4701;51.566;6.776;2023-07-20T06:21:28;3.97;;;3.40;;
9324;SDS011;4701;51.566;6.776;2023-07-20T06:24:30;3.77;;;3.40;;
9324;SDS011;4701;51.566;6.776;2023-07-20T06:27:32;3.63;;;3.33;;
9324;SDS011;4701;51.566;6.776;2023-07-20T06:30:34;4.10;;;3.70;;
9324;SDS011;4701;51.566;6.776;2023-07-20T06:33:35;3.73;;;3.43;;
9324;SDS011;4701;51.566;6.776;2023-07-20T06:36:38;3.73;;;3.43;;
9324;SDS011;4701;51.566;6.776;2023-07-20T06:39:40;3.30;;;3.00;;
9324;SDS011;4701;51.566;6.776;2023-07-20T06:42:42;3.60;;;3.30;;
9324;SDS011;4701;51.566;6.776;2023-07-20T06:45:44;3.40;;;3.10;;
9324;SDS011;4701;51.566;6.776;2023-07-20T06:48:45;3.27;;;2.97;;
9324;SDS011;4701;51.566;6.776;2023-07-20T06:51:48;2.57;;;2.37;;
9324;SDS011;4701;51.566;6.776;2023-07-20T06:54:50;2.90;;;2.60;;
9324;SDS011;4701;51.566;6.776;2023-07-20T06:57:52;3.20;;;3.00;;
9324;SDS011;4701;51.566;6.776;2023-07-20T07:00:54;2.97;;;2.77;;
9324;SDS011;4701;51.566;6.776;2023-07-20T07:03:56;3.43;;;2.47;;
9324;SDS011;4701;51.566;6.776;2023-07-20T07:06:59;3.53;;;2.73;;
9324;SDS011;4701;51.566;6.776;2023-07-20T07:10:01;3.13;;;2.83;;
9324;SDS011;4701;51.566;6.776;2023-07-20T07:13:04;2.73;;;2.53;;
9324;SDS011;4701;51.566;6.776;2023-07-20T07:16:06;3.13;;;2.67;;
9324;SDS011;4701;51.566;6.776;2023-07-20T07:23:01;3.03;;;2.50;;
9324;SDS011;4701;51.566;6.776;2023-07-20T07:26:03;2.63;;;2.43;;
9324;SDS011;4701;51.566;6.776;2023-07-20T07:29:05;2.50;;;2.30;;
9324;SDS011;4701;51.566;6.776;2023-07-20T07:32:06;2.40;;;2.13;;
9324;SDS011;4701;51.566;6.776;2023-07-20T07:35:10;2.07;;;1.70;;
9324;SDS011;4701;51.566;6.776;2023-07-20T07:38:14;1.37;;;1.27;;
9324;SDS011;4701;51.566;6.776;2023-07-20T07:41:15;1.57;;;1.30;;
9324;SDS011;4701;51.566;6.776;2023-07-20T07:44:17;1.20;;;1.10;;
9324;SDS011;4701;51.566;6.776;2023-07-20T07:47:19;1.00;;;1.00;;
9324;SDS011;4701;51.566;6.776;2023-07-20T07:50:20;1.80;;;1.20;;
9324;SDS011;4701;51.566;6.776;2023-07-20T07:53:23;1.20;;;1.00;;
9324;SDS011;4701;51.566;6.776;2023-07-20T07:56:26;0.80;;;0.80;;
9324;SDS011;4701;51.566;6.776;2023-07-20T07:59:28;1.07;;;0.93;;
9324;SDS011;4701;51.566;6.776;2023-07-20T08:02:31;1.30;;;1.20;;
9324;SDS011;4701;51.566;6.776;2023-07-20T08:05:33;2.23;;;1.30;;
9324;SDS011;4701;51.566;6.776;2023-07-20T08:08:37;1.70;;;1.60;;
9324;SDS011;4701;51.566;6.776;2023-07-20T08:11:39;1.50;;;1.40;;
9324;SDS011;4701;51.566;6.776;2023-07-20T08:14:41;1.73;;;1.20;;
9324;SDS011;4701;51.566;6.776;2023-07-20T08:17:42;2.40;;;1.23;;
9324;SDS011;4701;51.566;6.776;2023-07-20T08:20:44;1.50;;;1.40;;
9324;SDS011;4701;51.566;6.776;2023-07-20T08:23:48;1.23;;;1.13;;
9324;SDS011;4701;51.566;6.776;2023-07-20T08:26:49;1.30;;;1.20;;
9324;SDS011;4701;51.566;6.776;2023-07-20T08:29:51;1.87;;;1.37;;
9324;SDS011;4701;51.566;6.776;2023-07-20T08:32:53;0.70;;;0.70;;
9324;SDS011;4701;51.566;6.776;2023-07-20T08:35:54;2.70;;;0.93;;
9324;SDS011;4701;51.566;6.776;2023-07-20T09:14:19;1.07;;;0.70;;
9324;SDS011;4701;51.566;6.776;2023-07-20T09:17:21;1.03;;;0.90;;
9324;SDS011;4701;51.566;6.776;2023-07-20T09:20:27;0.90;;;0.80;;
9324;SDS011;4701;51.566;6.776;2023-07-20T09:23:33;2.00;;;1.00;;
9324;SDS011;4701;51.566;6.776;2023-07-20T09:26:39;0.73;;;0.70;;
9324;SDS011;4701;51.566;6.776;2023-07-20T09:29:49;1.27;;;0.90;;
9324;SDS011;4701;51.566;6.776;2023-07-20T09:32:51;1.10;;;0.77;;
9324;SDS011;4701;51.566;6.776;2023-07-20T09:35:53;0.90;;;0.90;;
9324;SDS011;4701;51.566;6.776;2023-07-20T09:38:55;1.40;;;0.70;;
9324;SDS011;4701;51.566;6.776;2023-07-20T09:41:59;2.10;;;0.83;;
9324;SDS011;4701;51.566;6.776;2023-07-20T09:45:03;1.00;;;0.70;;
9324;SDS011;4701;51.566;6.776;2023-07-20T09:48:08;0.97;;;0.70;;
9324;SDS011;4701;51.566;6.776;2023-07-20T09:51:12;1.93;;;0.90;;
9324;SDS011;4701;51.566;6.776;2023-07-20T09:54:13;3.43;;;1.63;;
9324;SDS011;4701;51.566;6.776;2023-07-20T09:57:15;1.27;;;1.00;;
9324;SDS011;4701;51.566;6.776;2023-07-20T10:00:19;1.90;;;1.03;;
